sensor_id;sensor_type;location;lat;lon;timestamp;P1;durP1;ratioP1;P2;durP2;ratioP2
44516;SDS011;30223;17.182;-96.766;2023-02-24T00:01:48;2.17;;;1.58;;
44516;SDS011;30223;17.182;-96.766;2023-02-24T00:06:56;2.08;;;1.85;;
44516;SDS011;30223;17.182;-96.766;2023-02-24T00:09:24;3.22;;;1.40;;
44516;SDS011;30223;17.182;-96.766;2023-02-24T00:11:54;2.67;;;1.60;;
44516;SDS011;30223;17.182;-96.766;2023-02-24T00:14:28;2.53;;;2.03;;
44516;SDS011;30223;17.182;-96.766;2023-02-24T00:16:57;1.80;;;1.27;;
44516;SDS011;30223;17.182;-96.766;2023-02-24T00:19:25;5.72;;;1.90;;
44516;SDS011;30223;17.182;-96.766;2023-02-24T00:24:20;2.08;;;1.70;;
44516;SDS011;30223;17.182;-96.766;2023-02-24T00:26:54;2.00;;;1.60;;
44516;SDS011;30223;17.182;-96.766;2023-02-24T00:29:27;2.78;;;1.75;;
44516;SDS011;30223;17.182;-96.766;2023-02-24T00:31:55;3.50;;;1.73;;
44516;SDS011;30223;17.182;-96.766;2023-02-24T00:34:31;2.40;;;1.67;;
44516;SDS011;30223;17.182;-96.766;2023-02-24T00:37:01;2.53;;;1.70;;
44516;SDS011;30223;17.182;-96.766;2023-02-24T00:39:31;2.30;;;1.83;;
44516;SDS011;30223;17.182;-96.766;2023-02-24T00:42:01;2.42;;;1.60;;
44516;SDS011;30223;17.182;-96.766;2023-02-24T00:46:59;2.67;;;1.83;;
44516;SDS011;30223;17.182;-96.766;2023-02-24T00:49:27;2.00;;;1.80;;
44516;SDS011;30223;17.182;-96.766;2023-02-24T00:51:57;2.13;;;1.92;;
44516;SDS011;30223;17.182;-96.766;2023-02-24T00:54:24;1.88;;;1.45;;
44516;SDS011;30223;17.182;-96.766;2023-02-24T00:56:53;1.55;;;1.42;;
44516;SDS011;30223;17.182;-96.766;2023-02-24T00:59:20;1.65;;;1.48;;
44516;SDS011;30223;17.182;-96.766;2023-02-24T01:01:50;2.85;;;1.98;;
44516;SDS011;30223;17.182;-96.766;2023-02-24T01:04:19;3.50;;;1.50;;
44516;SDS011;30223;17.182;-96.766;2023-02-24T01:06:48;5.32;;;1.90;;
44516;SDS011;30223;17.182;-96.766;2023-02-24T01:09:19;2.92;;;2.15;;
44516;SDS011;30223;17.182;-96.766;2023-02-24T01:11:46;3.45;;;2.25;;
44516;SDS011;30223;17.182;-96.766;2023-02-24T01:14:46;4.97;;;1.58;;
44516;SDS011;30223;17.182;-96.766;2023-02-24T01:17:15;2.70;;;1.83;;
44516;SDS011;30223;17.182;-96.766;2023-02-24T01:19:43;3.95;;;2.22;;
44516;SDS011;30223;17.182;-96.766;2023-02-24T01:22:13;4.07;;;1.83;;
44516;SDS011;30223;17.182;-96.766;2023-02-24T01:24:43;4.45;;;2.42;;
44516;SDS011;30223;17.182;-96.766;2023-02-24T01:27:11;6.63;;;2.45;;
44516;SDS011;30223;17.182;-96.766;2023-02-24T01:29:41;3.15;;;1.55;;
44516;SDS011;30223;17.182;-96.766;2023-02-24T01:32:12;3.83;;;1.95;;
44516;SDS011;30223;17.182;-96.766;2023-02-24T01:34:43;6.65;;;2.10;;
44516;SDS011;30223;17.182;-96.766;2023-02-24T01:37:11;8.85;;;2.20;;
44516;SDS011;30223;17.182;-96.766;2023-02-24T01:39:41;6.35;;;2.33;;
44516;SDS011;30223;17.182;-96.766;2023-02-24T01:42:11;5.10;;;2.13;;
44516;SDS011;30223;17.182;-96.766;2023-02-24T01:47:11;6.72;;;2.53;;
44516;SDS011;30223;17.182;-96.766;2023-02-24T01:49:40;5.60;;;2.05;;
44516;SDS011;30223;17.182;-96.766;2023-02-24T01:52:12;4.38;;;2.65;;
44516;SDS011;30223;17.182;-96.766;2023-02-24T01:57:40;4.05;;;2.78;;
44516;SDS011;30223;17.182;-96.766;2023-02-24T02:00:10;2.97;;;2.47;;
44516;SDS011;30223;17.182;-96.766;2023-02-24T02:03:13;3.70;;;2.63;;
44516;SDS011;30223;17.182;-96.766;2023-02-24T02:05:40;9.48;;;3.53;;
44516;SDS011;30223;17.182;-96.766;2023-02-24T02:08:09;8.13;;;2.97;;
44516;SDS011;30223;17.182;-96.766;2023-02-24T02:10:39;5.60;;;3.35;;
44516;SDS011;30223;17.182;-96.766;2023-02-24T02:13:09;7.32;;;2.45;;
44516;SDS011;30223;17.182;-96.766;2023-02-24T02:16:16;4.40;;;2.55;;
44516;SDS011;30223;17.182;-96.766;2023-02-24T02:21:41;3.50;;;2.22;;
44516;SDS011;30223;17.182;-96.766;2023-02-24T02:24:26;3.42;;;2.20;;
44516;SDS011;30223;17.182;-96.766;2023-02-24T02:38:26;6.20;;;2.47;;
44516;SDS011;30223;17.182;-96.766;2023-02-24T02:44:06;9.45;;;2.83;;
44516;SDS011;30223;17.182;-96.766;2023-02-24T02:47:07;4.68;;;3.15;;
44516;SDS011;30223;17.182;-96.766;2023-02-24T02:50:39;6.63;;;3.60;;
44516;SDS011;30223;17.182;-96.766;2023-02-24T02:53:01;6.28;;;2.97;;
44516;SDS011;30223;17.182;-96.766;2023-02-24T02:58:18;4.40;;;2.60;;
44516;SDS011;30223;17.182;-96.766;2023-02-24T03:00:54;4.00;;;2.95;;
44516;SDS011;30223;17.182;-96.766;2023-02-24T03:03:34;4.88;;;2.90;;
44516;SDS011;30223;17.182;-96.766;2023-02-24T03:06:13;8.13;;;2.88;;
44516;SDS011;30223;17.182;-96.766;2023-02-24T03:09:08;6.15;;;2.75;;
44516;SDS011;30223;17.182;-96.766;2023-02-24T03:11:43;4.45;;;2.25;;
44516;SDS011;30223;17.182;-96.766;2023-02-24T03:14:14;3.10;;;2.30;;
44516;SDS011;30223;17.182;-96.766;2023-02-24T03:16:44;6.93;;;2.75;;
44516;SDS011;30223;17.182;-96.766;2023-02-24T03:19:14;5.50;;;3.15;;
44516;SDS011;30223;17.182;-96.766;2023-02-24T03:21:47;4.72;;;2.15;;
44516;SDS011;30223;17.182;-96.766;2023-02-24T03:24:23;4.82;;;2.30;;
44516;SDS011;30223;17.182;-96.766;2023-02-24T03:26:55;3.90;;;2.53;;
44516;SDS011;30223;17.182;-96.766;2023-02-24T03:29:49;7.38;;;2.72;;
44516;SDS011;30223;17.182;-96.766;2023-02-24T03:32:30;4.60;;;2.20;;
44516;SDS011;30223;17.182;-96.766;2023-02-24T03:35:24;6.93;;;2.00;;
44516;SDS011;30223;17.182;-96.766;2023-02-24T03:37:54;2.92;;;2.58;;
44516;SDS011;30223;17.182;-96.766;2023-02-24T03:40:23;8.93;;;2.65;;
44516;SDS011;30223;17.182;-96.766;2023-02-24T03:43:00;3.97;;;2.90;;
44516;SDS011;30223;17.182;-96.766;2023-02-24T03:45:38;2.85;;;2.47;;
44516;SDS011;30223;17.182;-96.766;2023-02-24T03:48:06;3.05;;;2.13;;
44516;SDS011;30223;17.182;-96.766;2023-02-24T03:50:36;4.30;;;2.15;;
44516;SDS011;30223;17.182;-96.766;2023-02-24T03:56:18;4.60;;;2.38;;
44516;SDS011;30223;17.182;-96.766;2023-02-24T03:58:53;3.95;;;2.75;;
44516;SDS011;30223;17.182;-96.766;2023-02-24T04:01:50;2.38;;;1.75;;
44516;SDS011;30223;17.182;-96.766;2023-02-24T04:04:30;3.38;;;2.13;;
44516;SDS011;30223;17.182;-96.766;2023-02-24T04:07:14;4.35;;;1.92;;
44516;SDS011;30223;17.182;-96.766;2023-02-24T04:12:33;8.85;;;2.55;;
44516;SDS011;30223;17.182;-96.766;2023-02-24T04:15:17;2.72;;;2.40;;
44516;SDS011;30223;17.182;-96.766;2023-02-24T04:18:02;9.35;;;2.22;;
44516;SDS011;30223;17.182;-96.766;2023-02-24T04:20:39;3.67;;;2.20;;
44516;SDS011;30223;17.182;-96.766;2023-02-24T04:23:12;4.35;;;1.95;;
44516;SDS011;30223;17.182;-96.766;2023-02-24T04:25:43;5.47;;;2.38;;
44516;SDS011;30223;17.182;-96.766;2023-02-24T04:28:12;9.43;;;2.58;;
44516;SDS011;30223;17.182;-96.766;2023-02-24T04:30:40;4.35;;;2.35;;
44516;SDS011;30223;17.182;-96.766;2023-02-24T04:33:09;9.15;;;2.97;;
44516;SDS011;30223;17.182;-96.766;2023-02-24T04:35:36;7.60;;;2.50;;
44516;SDS011;30223;17.182;-96.766;2023-02-24T04:38:04;6.07;;;2.42;;
44516;SDS011;30223;17.182;-96.766;2023-02-24T04:40:31;9.32;;;1.77;;
44516;SDS011;30223;17.182;-96.766;2023-02-24T04:42:58;6.15;;;2.05;;
44516;SDS011;30223;17.182;-96.766;2023-02-24T04:45:25;5.47;;;2.17;;
44516;SDS011;30223;17.182;-96.766;2023-02-24T04:47:54;3.65;;;1.60;;
44516;SDS011;30223;17.182;-96.766;2023-02-24T04:50:26;6.55;;;2.53;;
44516;SDS011;30223;17.182;-96.766;2023-02-24T04:52:58;5.78;;;2.47;;
44516;SDS011;30223;17.182;-96.766;2023-02-24T04:55:34;4.50;;;3.25;;
44516;SDS011;30223;17.182;-96.766;2023-02-24T04:58:04;4.43;;;1.98;;
44516;SDS011;30223;17.182;-96.766;2023-02-24T05:00:35;5.97;;;2.13;;
44516;SDS011;30223;17.182;-96.766;2023-02-24T05:03:06;3.85;;;1.45;;
44516;SDS011;30223;17.182;-96.766;2023-02-24T05:05:35;3.85;;;2.75;;
44516;SDS011;30223;17.182;-96.766;2023-02-24T05:08:04;4.20;;;2.67;;
44516;SDS011;30223;17.182;-96.766;2023-02-24T05:10:36;9.27;;;2.28;;
44516;SDS011;30223;17.182;-96.766;2023-02-24T05:13:05;3.70;;;1.50;;
44516;SDS011;30223;17.182;-96.766;2023-02-24T05:15:33;3.65;;;1.92;;
44516;SDS011;30223;17.182;-96.766;2023-02-24T05:18:04;3.35;;;1.92;;
44516;SDS011;30223;17.182;-96.766;2023-02-24T05:20:39;2.90;;;1.98;;
44516;SDS011;30223;17.182;-96.766;2023-02-24T05:23:26;2.30;;;1.40;;
44516;SDS011;30223;17.182;-96.766;2023-02-24T05:25:59;2.35;;;1.65;;
44516;SDS011;30223;17.182;-96.766;2023-02-24T05:28:28;3.22;;;1.67;;
44516;SDS011;30223;17.182;-96.766;2023-02-24T05:31:06;3.25;;;1.92;;
44516;SDS011;30223;17.182;-96.766;2023-02-24T05:33:39;2.08;;;1.67;;
44516;SDS011;30223;17.182;-96.766;2023-02-24T05:36:08;1.73;;;1.58;;
44516;SDS011;30223;17.182;-96.766;2023-02-24T05:38:42;3.20;;;1.92;;
44516;SDS011;30223;17.182;-96.766;2023-02-24T05:41:14;2.70;;;1.70;;
44516;SDS011;30223;17.182;-96.766;2023-02-24T05:43:54;4.38;;;2.00;;
44516;SDS011;30223;17.182;-96.766;2023-02-24T05:46:21;3.42;;;1.80;;
44516;SDS011;30223;17.182;-96.766;2023-02-24T05:48:56;3.33;;;1.88;;
44516;SDS011;30223;17.182;-96.766;2023-02-24T05:51:28;2.30;;;1.83;;
44516;SDS011;30223;17.182;-96.766;2023-02-24T05:54:12;3.75;;;2.17;;
44516;SDS011;30223;17.182;-96.766;2023-02-24T05:56:40;3.13;;;1.33;;
44516;SDS011;30223;17.182;-96.766;2023-02-24T05:59:09;4.90;;;3.05;;
44516;SDS011;30223;17.182;-96.766;2023-02-24T06:01:38;4.05;;;2.58;;
44516;SDS011;30223;17.182;-96.766;2023-02-24T06:04:08;1.73;;;1.58;;
44516;SDS011;30223;17.182;-96.766;2023-02-24T06:06:45;3.22;;;1.80;;
44516;SDS011;30223;17.182;-96.766;2023-02-24T06:09:22;3.55;;;2.05;;
44516;SDS011;30223;17.182;-96.766;2023-02-24T06:11:49;2.58;;;1.80;;
44516;SDS011;30223;17.182;-96.766;2023-02-24T06:14:16;2.63;;;1.65;;
44516;SDS011;30223;17.182;-96.766;2023-02-24T06:16:42;3.33;;;2.38;;
44516;SDS011;30223;17.182;-96.766;2023-02-24T06:19:10;4.43;;;2.33;;
44516;SDS011;30223;17.182;-96.766;2023-02-24T06:21:38;2.80;;;1.53;;
44516;SDS011;30223;17.182;-96.766;2023-02-24T06:24:08;1.98;;;1.73;;
44516;SDS011;30223;17.182;-96.766;2023-02-24T06:26:43;1.63;;;1.45;;
44516;SDS011;30223;17.182;-96.766;2023-02-24T06:29:11;2.20;;;1.60;;
44516;SDS011;30223;17.182;-96.766;2023-02-24T06:31:42;1.73;;;1.50;;
44516;SDS011;30223;17.182;-96.766;2023-02-24T06:34:09;2.92;;;1.85;;
44516;SDS011;30223;17.182;-96.766;2023-02-24T06:36:42;3.03;;;2.10;;
44516;SDS011;30223;17.182;-96.766;2023-02-24T06:39:09;4.60;;;2.13;;
44516;SDS011;30223;17.182;-96.766;2023-02-24T06:41:39;4.00;;;1.75;;
44516;SDS011;30223;17.182;-96.766;2023-02-24T06:44:07;2.50;;;1.58;;
44516;SDS011;30223;17.182;-96.766;2023-02-24T06:46:34;3.13;;;1.40;;
44516;SDS011;30223;17.182;-96.766;2023-02-24T06:49:01;2.72;;;1.73;;
44516;SDS011;30223;17.182;-96.766;2023-02-24T06:51:28;1.95;;;1.73;;
44516;SDS011;30223;17.182;-96.766;2023-02-24T06:53:55;2.08;;;1.50;;
44516;SDS011;30223;17.182;-96.766;2023-02-24T06:56:23;3.17;;;1.73;;
44516;SDS011;30223;17.182;-96.766;2023-02-24T06:58:52;7.72;;;2.03;;
44516;SDS011;30223;17.182;-96.766;2023-02-24T07:01:22;2.85;;;1.75;;
44516;SDS011;30223;17.182;-96.766;2023-02-24T07:03:54;4.97;;;1.48;;
44516;SDS011;30223;17.182;-96.766;2023-02-24T07:06:49;5.72;;;2.55;;
44516;SDS011;30223;17.182;-96.766;2023-02-24T07:09:20;2.25;;;1.67;;
44516;SDS011;30223;17.182;-96.766;2023-02-24T07:11:50;1.67;;;1.48;;
44516;SDS011;30223;17.182;-96.766;2023-02-24T07:14:19;1.60;;;1.30;;
44516;SDS011;30223;17.182;-96.766;2023-02-24T07:16:48;4.03;;;1.48;;
44516;SDS011;30223;17.182;-96.766;2023-02-24T07:19:19;2.47;;;1.42;;
44516;SDS011;30223;17.182;-96.766;2023-02-24T07:21:48;1.77;;;1.30;;
44516;SDS011;30223;17.182;-96.766;2023-02-24T07:24:20;2.75;;;1.65;;
44516;SDS011;30223;17.182;-96.766;2023-02-24T07:26:55;2.85;;;1.30;;
44516;SDS011;30223;17.182;-96.766;2023-02-24T07:29:24;1.58;;;1.00;;
44516;SDS011;30223;17.182;-96.766;2023-02-24T07:31:54;2.42;;;1.52;;
44516;SDS011;30223;17.182;-96.766;2023-02-24T07:34:25;3.05;;;1.10;;
44516;SDS011;30223;17.182;-96.766;2023-02-24T07:36:53;3.03;;;1.40;;
44516;SDS011;30223;17.182;-96.766;2023-02-24T07:39:21;2.85;;;1.60;;
44516;SDS011;30223;17.182;-96.766;2023-02-24T07:41:51;1.77;;;1.20;;
44516;SDS011;30223;17.182;-96.766;2023-02-24T07:44:23;4.57;;;1.58;;
44516;SDS011;30223;17.182;-96.766;2023-02-24T07:46:51;1.88;;;1.50;;
44516;SDS011;30223;17.182;-96.766;2023-02-24T07:49:19;2.47;;;1.58;;
44516;SDS011;30223;17.182;-96.766;2023-02-24T07:51:50;8.93;;;1.38;;
44516;SDS011;30223;17.182;-96.766;2023-02-24T07:54:20;1.67;;;1.08;;
44516;SDS011;30223;17.182;-96.766;2023-02-24T07:56:47;1.90;;;1.40;;
44516;SDS011;30223;17.182;-96.766;2023-02-24T07:59:22;3.53;;;1.15;;
44516;SDS011;30223;17.182;-96.766;2023-02-24T08:01:53;3.75;;;1.33;;
44516;SDS011;30223;17.182;-96.766;2023-02-24T08:04:22;1.27;;;1.08;;
44516;SDS011;30223;17.182;-96.766;2023-02-24T08:06:51;4.70;;;1.30;;
44516;SDS011;30223;17.182;-96.766;2023-02-24T08:09:24;3.65;;;1.10;;
44516;SDS011;30223;17.182;-96.766;2023-02-24T08:12:16;2.92;;;1.50;;
44516;SDS011;30223;17.182;-96.766;2023-02-24T08:14:46;1.90;;;1.33;;
44516;SDS011;30223;17.182;-96.766;2023-02-24T08:17:18;2.10;;;1.20;;
44516;SDS011;30223;17.182;-96.766;2023-02-24T08:19:48;2.25;;;1.17;;
44516;SDS011;30223;17.182;-96.766;2023-02-24T08:22:32;3.55;;;1.35;;
44516;SDS011;30223;17.182;-96.766;2023-02-24T08:25:01;3.22;;;1.13;;
44516;SDS011;30223;17.182;-96.766;2023-02-24T08:27:33;1.05;;;0.95;;
44516;SDS011;30223;17.182;-96.766;2023-02-24T08:30:10;2.25;;;1.40;;
44516;SDS011;30223;17.182;-96.766;2023-02-24T08:32:54;1.90;;;1.55;;
44516;SDS011;30223;17.182;-96.766;2023-02-24T08:35:25;1.83;;;1.25;;
44516;SDS011;30223;17.182;-96.766;2023-02-24T08:38:03;1.42;;;1.00;;
44516;SDS011;30223;17.182;-96.766;2023-02-24T08:40:39;1.77;;;1.10;;
44516;SDS011;30223;17.182;-96.766;2023-02-24T08:43:27;1.25;;;1.13;;
44516;SDS011;30223;17.182;-96.766;2023-02-24T08:46:00;3.13;;;1.20;;
44516;SDS011;30223;17.182;-96.766;2023-02-24T08:51:14;1.55;;;1.08;;
44516;SDS011;30223;17.182;-96.766;2023-02-24T08:53:52;1.38;;;1.27;;
44516;SDS011;30223;17.182;-96.766;2023-02-24T08:56:24;1.38;;;1.05;;
44516;SDS011;30223;17.182;-96.766;2023-02-24T08:58:54;1.10;;;0.98;;
44516;SDS011;30223;17.182;-96.766;2023-02-24T09:01:32;1.00;;;0.90;;
44516;SDS011;30223;17.182;-96.766;2023-02-24T09:04:05;1.10;;;1.00;;
44516;SDS011;30223;17.182;-96.766;2023-02-24T09:09:03;1.90;;;1.08;;
44516;SDS011;30223;17.182;-96.766;2023-02-24T09:11:44;1.13;;;1.00;;
44516;SDS011;30223;17.182;-96.766;2023-02-24T09:14:22;4.57;;;1.30;;
44516;SDS011;30223;17.182;-96.766;2023-02-24T09:16:51;1.63;;;1.23;;
44516;SDS011;30223;17.182;-96.766;2023-02-24T09:22:27;2.35;;;1.10;;
44516;SDS011;30223;17.182;-96.766;2023-02-24T09:25:11;2.20;;;1.00;;
44516;SDS011;30223;17.182;-96.766;2023-02-24T09:28:11;1.73;;;1.15;;
44516;SDS011;30223;17.182;-96.766;2023-02-24T09:33:18;2.25;;;1.40;;
44516;SDS011;30223;17.182;-96.766;2023-02-24T09:35:51;1.95;;;1.25;;
44516;SDS011;30223;17.182;-96.766;2023-02-24T09:38:44;3.10;;;0.80;;
44516;SDS011;30223;17.182;-96.766;2023-02-24T09:41:35;1.80;;;0.85;;
44516;SDS011;30223;17.182;-96.766;2023-02-24T09:44:27;1.40;;;1.00;;
44516;SDS011;30223;17.182;-96.766;2023-02-24T09:49:51;0.95;;;0.85;;
44516;SDS011;30223;17.182;-96.766;2023-02-24T09:52:24;1.35;;;1.10;;
44516;SDS011;30223;17.182;-96.766;2023-02-24T10:01:32;2.38;;;1.08;;
44516;SDS011;30223;17.182;-96.766;2023-02-24T10:04:33;1.02;;;0.80;;
44516;SDS011;30223;17.182;-96.766;2023-02-24T10:10:02;1.25;;;1.10;;
44516;SDS011;30223;17.182;-96.766;2023-02-24T10:12:51;1.63;;;1.23;;
44516;SDS011;30223;17.182;-96.766;2023-02-24T10:15:22;1.40;;;1.20;;
44516;SDS011;30223;17.182;-96.766;2023-02-24T10:34:41;1.20;;;1.08;;
44516;SDS011;30223;17.182;-96.766;2023-02-24T10:37:16;1.83;;;1.20;;
44516;SDS011;30223;17.182;-96.766;2023-02-24T10:39:47;1.25;;;0.90;;
44516;SDS011;30223;17.182;-96.766;2023-02-24T10:42:25;2.45;;;1.05;;
44516;SDS011;30223;17.182;-96.766;2023-02-24T10:47:58;1.50;;;1.40;;
44516;SDS011;30223;17.182;-96.766;2023-02-24T10:50:27;2.17;;;1.33;;
44516;SDS011;30223;17.182;-96.766;2023-02-24T10:53:04;1.27;;;1.17;;
44516;SDS011;30223;17.182;-96.766;2023-02-24T10:55:40;1.38;;;1.20;;
44516;SDS011;30223;17.182;-96.766;2023-02-24T10:58:19;1.08;;;0.82;;
44516;SDS011;30223;17.182;-96.766;2023-02-24T11:04:08;1.23;;;0.88;;
44516;SDS011;30223;17.182;-96.766;2023-02-24T11:10:21;1.85;;;0.77;;
44516;SDS011;30223;17.182;-96.766;2023-02-24T11:12:57;1.27;;;1.17;;
44516;SDS011;30223;17.182;-96.766;2023-02-24T11:15:51;0.98;;;0.85;;
44516;SDS011;30223;17.182;-96.766;2023-02-24T11:18:38;1.80;;;1.02;;
44516;SDS011;30223;17.182;-96.766;2023-02-24T11:21:10;1.65;;;1.00;;
44516;SDS011;30223;17.182;-96.766;2023-02-24T11:23:45;1.40;;;0.90;;
44516;SDS011;30223;17.182;-96.766;2023-02-24T11:26:18;1.42;;;1.20;;
44516;SDS011;30223;17.182;-96.766;2023-02-24T11:29:14;1.17;;;1.08;;
44516;SDS011;30223;17.182;-96.766;2023-02-24T11:34:53;1.33;;;1.08;;
44516;SDS011;30223;17.182;-96.766;2023-02-24T11:37:38;2.38;;;1.50;;
44516;SDS011;30223;17.182;-96.766;2023-02-24T11:42:52;2.25;;;1.25;;
44516;SDS011;30223;17.182;-96.766;2023-02-24T11:47:57;1.35;;;1.20;;
44516;SDS011;30223;17.182;-96.766;2023-02-24T11:53:26;0.90;;;0.70;;
44516;SDS011;30223;17.182;-96.766;2023-02-24T11:56:07;1.15;;;1.05;;
44516;SDS011;30223;17.182;-96.766;2023-02-24T11:58:47;1.73;;;1.02;;
44516;SDS011;30223;17.182;-96.766;2023-02-24T12:03:54;1.40;;;1.08;;
44516;SDS011;30223;17.182;-96.766;2023-02-24T12:07:24;1.73;;;1.20;;
44516;SDS011;30223;17.182;-96.766;2023-02-24T12:09:37;1.45;;;0.88;;
44516;SDS011;30223;17.182;-96.766;2023-02-24T12:12:16;3.10;;;1.30;;
44516;SDS011;30223;17.182;-96.766;2023-02-24T12:14:56;1.02;;;0.93;;
44516;SDS011;30223;17.182;-96.766;2023-02-24T12:17:34;1.45;;;1.10;;
44516;SDS011;30223;17.182;-96.766;2023-02-24T12:20:37;1.40;;;1.30;;
44516;SDS011;30223;17.182;-96.766;2023-02-24T12:23:21;1.98;;;0.90;;
44516;SDS011;30223;17.182;-96.766;2023-02-24T12:29:17;1.83;;;1.27;;
44516;SDS011;30223;17.182;-96.766;2023-02-24T12:35:00;1.80;;;1.02;;
44516;SDS011;30223;17.182;-96.766;2023-02-24T12:37:33;0.90;;;0.63;;
44516;SDS011;30223;17.182;-96.766;2023-02-24T12:46:08;3.45;;;0.90;;
44516;SDS011;30223;17.182;-96.766;2023-02-24T12:48:52;2.08;;;0.98;;
44516;SDS011;30223;17.182;-96.766;2023-02-24T12:54:28;1.10;;;0.90;;
44516;SDS011;30223;17.182;-96.766;2023-02-24T12:59:37;1.27;;;1.10;;
44516;SDS011;30223;17.182;-96.766;2023-02-24T13:15:31;1.23;;;1.00;;
44516;SDS011;30223;17.182;-96.766;2023-02-24T13:17:57;1.25;;;1.15;;
44516;SDS011;30223;17.182;-96.766;2023-02-24T13:20:26;1.10;;;0.85;;
44516;SDS011;30223;17.182;-96.766;2023-02-24T13:22:58;2.13;;;0.90;;
44516;SDS011;30223;17.182;-96.766;2023-02-24T13:25:29;1.20;;;0.90;;
44516;SDS011;30223;17.182;-96.766;2023-02-24T13:28:00;1.02;;;0.93;;
44516;SDS011;30223;17.182;-96.766;2023-02-24T13:30:38;2.35;;;0.90;;
44516;SDS011;30223;17.182;-96.766;2023-02-24T13:36:07;3.03;;;0.90;;
44516;SDS011;30223;17.182;-96.766;2023-02-24T13:38:38;1.08;;;0.95;;
44516;SDS011;30223;17.182;-96.766;2023-02-24T13:44:01;2.22;;;1.20;;
44516;SDS011;30223;17.182;-96.766;2023-02-24T13:47:06;2.85;;;2.25;;
44516;SDS011;30223;17.182;-96.766;2023-02-24T13:52:52;3.00;;;1.35;;
44516;SDS011;30223;17.182;-96.766;2023-02-24T13:58:06;1.35;;;1.08;;
44516;SDS011;30223;17.182;-96.766;2023-02-24T14:03:23;1.73;;;1.02;;
44516;SDS011;30223;17.182;-96.766;2023-02-24T14:05:52;2.35;;;2.05;;
44516;SDS011;30223;17.182;-96.766;2023-02-24T14:08:32;2.05;;;1.60;;
44516;SDS011;30223;17.182;-96.766;2023-02-24T14:11:09;1.20;;;0.98;;
44516;SDS011;30223;17.182;-96.766;2023-02-24T14:13:40;2.85;;;1.45;;
44516;SDS011;30223;17.182;-96.766;2023-02-24T14:16:14;1.35;;;1.20;;
44516;SDS011;30223;17.182;-96.766;2023-02-24T14:18:56;1.75;;;1.00;;
44516;SDS011;30223;17.182;-96.766;2023-02-24T14:21:26;1.75;;;1.27;;
44516;SDS011;30223;17.182;-96.766;2023-02-24T14:23:59;1.60;;;1.33;;
44516;SDS011;30223;17.182;-96.766;2023-02-24T14:26:36;4.00;;;1.42;;
44516;SDS011;30223;17.182;-96.766;2023-02-24T14:29:12;2.30;;;1.38;;
44516;SDS011;30223;17.182;-96.766;2023-02-24T14:31:45;1.60;;;0.90;;
44516;SDS011;30223;17.182;-96.766;2023-02-24T14:34:15;1.63;;;1.17;;
44516;SDS011;30223;17.182;-96.766;2023-02-24T14:36:45;6.82;;;1.33;;
44516;SDS011;30223;17.182;-96.766;2023-02-24T14:41:40;2.08;;;1.42;;
44516;SDS011;30223;17.182;-96.766;2023-02-24T14:44:15;2.17;;;1.42;;
44516;SDS011;30223;17.182;-96.766;2023-02-24T14:46:51;1.65;;;1.10;;
44516;SDS011;30223;17.182;-96.766;2023-02-24T14:49:24;2.78;;;1.00;;
44516;SDS011;30223;17.182;-96.766;2023-02-24T14:51:54;2.40;;;1.10;;
44516;SDS011;30223;17.182;-96.766;2023-02-24T14:54:40;1.42;;;1.13;;
44516;SDS011;30223;17.182;-96.766;2023-02-24T14:57:14;1.92;;;1.30;;
44516;SDS011;30223;17.182;-96.766;2023-02-24T14:59:44;2.42;;;1.63;;
44516;SDS011;30223;17.182;-96.766;2023-02-24T15:02:15;1.27;;;1.10;;
44516;SDS011;30223;17.182;-96.766;2023-02-24T15:04:46;1.88;;;0.93;;
44516;SDS011;30223;17.182;-96.766;2023-02-24T15:07:45;1.60;;;1.38;;
44516;SDS011;30223;17.182;-96.766;2023-02-24T15:10:15;3.85;;;1.17;;
44516;SDS011;30223;17.182;-96.766;2023-02-24T15:12:53;2.83;;;1.45;;
44516;SDS011;30223;17.182;-96.766;2023-02-24T15:15:35;2.55;;;1.73;;
44516;SDS011;30223;17.182;-96.766;2023-02-24T15:18:24;4.63;;;1.40;;
44516;SDS011;30223;17.182;-96.766;2023-02-24T15:21:02;2.70;;;1.20;;
44516;SDS011;30223;17.182;-96.766;2023-02-24T15:23:32;2.38;;;1.23;;
44516;SDS011;30223;17.182;-96.766;2023-02-24T15:25:59;2.80;;;2.03;;
44516;SDS011;30223;17.182;-96.766;2023-02-24T15:31:02;7.72;;;3.88;;
44516;SDS011;30223;17.182;-96.766;2023-02-24T15:33:36;2.10;;;1.35;;
44516;SDS011;30223;17.182;-96.766;2023-02-24T15:36:08;1.67;;;1.02;;
44516;SDS011;30223;17.182;-96.766;2023-02-24T15:38:43;3.85;;;1.65;;
44516;SDS011;30223;17.182;-96.766;2023-02-24T15:41:11;1.48;;;1.10;;
44516;SDS011;30223;17.182;-96.766;2023-02-24T15:43:49;1.95;;;1.63;;
44516;SDS011;30223;17.182;-96.766;2023-02-24T15:48:50;1.63;;;1.40;;
44516;SDS011;30223;17.182;-96.766;2023-02-24T15:53:50;2.10;;;1.13;;
44516;SDS011;30223;17.182;-96.766;2023-02-24T15:56:17;3.92;;;1.10;;
44516;SDS011;30223;17.182;-96.766;2023-02-24T15:58:45;2.10;;;1.75;;
44516;SDS011;30223;17.182;-96.766;2023-02-24T16:01:11;3.30;;;1.65;;
44516;SDS011;30223;17.182;-96.766;2023-02-24T16:03:38;3.08;;;1.55;;
44516;SDS011;30223;17.182;-96.766;2023-02-24T16:06:05;1.65;;;1.25;;
44516;SDS011;30223;17.182;-96.766;2023-02-24T16:08:39;2.10;;;1.40;;
44516;SDS011;30223;17.182;-96.766;2023-02-24T16:11:09;1.75;;;1.63;;
44516;SDS011;30223;17.182;-96.766;2023-02-24T16:13:37;2.47;;;1.33;;
44516;SDS011;30223;17.182;-96.766;2023-02-24T16:16:09;2.97;;;1.35;;
44516;SDS011;30223;17.182;-96.766;2023-02-24T16:18:38;2.25;;;1.00;;
44516;SDS011;30223;17.182;-96.766;2023-02-24T16:21:05;1.60;;;1.13;;
44516;SDS011;30223;17.182;-96.766;2023-02-24T16:23:31;2.95;;;1.42;;
44516;SDS011;30223;17.182;-96.766;2023-02-24T16:26:04;2.65;;;1.27;;
44516;SDS011;30223;17.182;-96.766;2023-02-24T16:28:38;2.38;;;1.30;;
44516;SDS011;30223;17.182;-96.766;2023-02-24T16:31:04;3.55;;;1.30;;
44516;SDS011;30223;17.182;-96.766;2023-02-24T16:33:32;3.45;;;1.88;;
44516;SDS011;30223;17.182;-96.766;2023-02-24T16:35:59;2.20;;;1.20;;
44516;SDS011;30223;17.182;-96.766;2023-02-24T16:38:26;1.10;;;1.00;;
44516;SDS011;30223;17.182;-96.766;2023-02-24T16:40:53;2.17;;;1.70;;
44516;SDS011;30223;17.182;-96.766;2023-02-24T16:43:20;3.10;;;1.17;;
44516;SDS011;30223;17.182;-96.766;2023-02-24T16:45:46;1.50;;;1.40;;
44516;SDS011;30223;17.182;-96.766;2023-02-24T16:48:20;2.45;;;1.65;;
44516;SDS011;30223;17.182;-96.766;2023-02-24T16:50:49;2.55;;;1.45;;
44516;SDS011;30223;17.182;-96.766;2023-02-24T16:53:19;2.20;;;1.25;;
44516;SDS011;30223;17.182;-96.766;2023-02-24T16:55:48;1.60;;;1.17;;
44516;SDS011;30223;17.182;-96.766;2023-02-24T16:58:14;2.53;;;1.85;;
44516;SDS011;30223;17.182;-96.766;2023-02-24T17:00:42;3.13;;;1.23;;
44516;SDS011;30223;17.182;-96.766;2023-02-24T17:03:21;2.47;;;1.40;;
44516;SDS011;30223;17.182;-96.766;2023-02-24T17:08:17;2.05;;;1.23;;
44516;SDS011;30223;17.182;-96.766;2023-02-24T17:10:43;3.88;;;1.52;;
44516;SDS011;30223;17.182;-96.766;2023-02-24T17:13:12;4.32;;;1.33;;
44516;SDS011;30223;17.182;-96.766;2023-02-24T17:15:40;3.78;;;1.65;;
44516;SDS011;30223;17.182;-96.766;2023-02-24T17:18:07;2.80;;;1.58;;
44516;SDS011;30223;17.182;-96.766;2023-02-24T17:20:36;1.95;;;1.52;;
44516;SDS011;30223;17.182;-96.766;2023-02-24T17:23:04;3.70;;;1.73;;
44516;SDS011;30223;17.182;-96.766;2023-02-24T17:25:35;1.73;;;1.15;;
44516;SDS011;30223;17.182;-96.766;2023-02-24T17:28:04;2.33;;;1.38;;
44516;SDS011;30223;17.182;-96.766;2023-02-24T17:30:32;2.42;;;1.42;;
44516;SDS011;30223;17.182;-96.766;2023-02-24T17:33:00;1.70;;;1.38;;
44516;SDS011;30223;17.182;-96.766;2023-02-24T17:35:27;3.90;;;1.52;;
44516;SDS011;30223;17.182;-96.766;2023-02-24T17:37:54;2.88;;;1.35;;
44516;SDS011;30223;17.182;-96.766;2023-02-24T17:40:21;2.47;;;1.50;;